Shule, China
Current Conditions -  °F | °C
As of 7:00 AM on Thursday 27 Nov 2014 (Local Time) from ZWSH Reporting Station
Clear Clear  
Wind Chill: 25°   Ceiling: Unl
Heat Index: 30°   Visibility: 6mi
Dew Point: 19°   Wind: 4mph
Humidity: 64%   Direction: NA
Pressure: 30.06"   Gusts: NA
Location:  39.42°N, 76.1°E
Report Text: ZWSH 262300Z VRB02MPS CAVOK M01/M07 Q1018 NOSIG
Loading
Personal Weather Stations






























Interactive Weather Map New forecast layout! Learn more

10-Day Weather Forecast

Advertisements
Track Severe Weather on mobile